sensor_id;sensor_type;location;lat;lon;timestamp;temperature;humidity
1377;DHT22;682;52.502;13.488;2023-10-08T00:02:23;12.30;1.00
1377;DHT22;682;52.502;13.488;2023-10-08T00:04:52;12.30;1.00
1377;DHT22;682;52.502;13.488;2023-10-08T00:07:20;12.30;1.00
1377;DHT22;682;52.502;13.488;2023-10-08T00:09:48;12.30;1.00
1377;DHT22;682;52.502;13.488;2023-10-08T00:12:18;12.20;1.00
1377;DHT22;682;52.502;13.488;2023-10-08T00:14:47;12.20;1.00
1377;DHT22;682;52.502;13.488;2023-10-08T00:17:19;12.20;1.00
1377;DHT22;682;52.502;13.488;2023-10-08T00:19:46;12.20;1.00
1377;DHT22;682;52.502;13.488;2023-10-08T00:22:18;12.20;1.00
1377;DHT22;682;52.502;13.488;2023-10-08T00:24:45;12.30;1.00
1377;DHT22;682;52.502;13.488;2023-10-08T00:27:14;12.30;1.00
1377;DHT22;682;52.502;13.488;2023-10-08T00:29:43;12.30;1.00
1377;DHT22;682;52.502;13.488;2023-10-08T00:32:12;12.30;1.00
1377;DHT22;682;52.502;13.488;2023-10-08T00:34:39;12.30;1.00
1377;DHT22;682;52.502;13.488;2023-10-08T00:37:09;12.30;1.00
1377;DHT22;682;52.502;13.488;2023-10-08T00:39:39;12.30;1.00
1377;DHT22;682;52.502;13.488;2023-10-08T00:42:07;12.40;1.00
1377;DHT22;682;52.502;13.488;2023-10-08T00:44:35;12.40;1.00
1377;DHT22;682;52.502;13.488;2023-10-08T00:47:07;12.40;1.00
1377;DHT22;682;52.502;13.488;2023-10-08T00:49:39;12.40;1.00
1377;DHT22;682;52.502;13.488;2023-10-08T00:52:20;12.40;1.00
1377;DHT22;682;52.502;13.488;2023-10-08T00:54:56;12.40;1.00
1377;DHT22;682;52.502;13.488;2023-10-08T00:57:35;12.40;1.00
1377;DHT22;682;52.502;13.488;2023-10-08T01:00:08;12.40;1.00
1377;DHT22;682;52.502;13.488;2023-10-08T01:02:42;12.40;1.00
1377;DHT22;682;52.502;13.488;2023-10-08T01:05:14;12.40;1.00
1377;DHT22;682;52.502;13.488;2023-10-08T01:07:42;12.40;1.00
1377;DHT22;682;52.502;13.488;2023-10-08T01:10:13;12.30;1.00
1377;DHT22;682;52.502;13.488;2023-10-08T01:12:45;12.30;1.00
1377;DHT22;682;52.502;13.488;2023-10-08T01:15:30;12.30;1.00
1377;DHT22;682;52.502;13.488;2023-10-08T01:18:02;12.30;1.00
1377;DHT22;682;52.502;13.488;2023-10-08T01:20:31;12.20;1.00
1377;DHT22;682;52.502;13.488;2023-10-08T01:23:07;12.20;1.00
1377;DHT22;682;52.502;13.488;2023-10-08T01:25:39;12.30;1.00
1377;DHT22;682;52.502;13.488;2023-10-08T01:28:08;12.30;1.00
1377;DHT22;682;52.502;13.488;2023-10-08T01:30:41;12.30;1.00
1377;DHT22;682;52.502;13.488;2023-10-08T01:33:12;12.30;1.00
1377;DHT22;682;52.502;13.488;2023-10-08T01:35:41;12.30;1.00
1377;DHT22;682;52.502;13.488;2023-10-08T01:38:09;12.20;1.00
1377;DHT22;682;52.502;13.488;2023-10-08T01:40:40;12.20;1.00
1377;DHT22;682;52.502;13.488;2023-10-08T01:43:07;12.20;1.00
1377;DHT22;682;52.502;13.488;2023-10-08T01:45:36;12.10;1.00
1377;DHT22;682;52.502;13.488;2023-10-08T01:48:07;12.10;1.00
1377;DHT22;682;52.502;13.488;2023-10-08T01:50:36;12.00;1.00
1377;DHT22;682;52.502;13.488;2023-10-08T01:53:03;12.00;1.00
1377;DHT22;682;52.502;13.488;2023-10-08T01:55:35;12.00;1.00
1377;DHT22;682;52.502;13.488;2023-10-08T01:58:15;12.00;1.00
1377;DHT22;682;52.502;13.488;2023-10-08T02:00:43;12.00;1.00
1377;DHT22;682;52.502;13.488;2023-10-08T02:03:12;12.00;1.00
1377;DHT22;682;52.502;13.488;2023-10-08T02:05:41;12.00;1.00
1377;DHT22;682;52.502;13.488;2023-10-08T02:08:09;12.00;1.00
1377;DHT22;682;52.502;13.488;2023-10-08T02:10:38;12.00;1.00
1377;DHT22;682;52.502;13.488;2023-10-08T02:13:07;12.00;1.00
1377;DHT22;682;52.502;13.488;2023-10-08T02:15:35;12.00;1.00
1377;DHT22;682;52.502;13.488;2023-10-08T02:18:05;12.00;1.00
1377;DHT22;682;52.502;13.488;2023-10-08T02:20:32;12.00;1.00
1377;DHT22;682;52.502;13.488;2023-10-08T02:22:59;12.00;1.00
1377;DHT22;682;52.502;13.488;2023-10-08T02:25:26;12.00;1.00
1377;DHT22;682;52.502;13.488;2023-10-08T02:27:55;12.00;1.00
1377;DHT22;682;52.502;13.488;2023-10-08T02:30:23;12.00;1.00
1377;DHT22;682;52.502;13.488;2023-10-08T02:32:50;12.00;1.00
1377;DHT22;682;52.502;13.488;2023-10-08T02:35:18;12.00;1.00
1377;DHT22;682;52.502;13.488;2023-10-08T02:37:45;12.00;1.00
1377;DHT22;682;52.502;13.488;2023-10-08T02:40:12;12.00;1.00
1377;DHT22;682;52.502;13.488;2023-10-08T02:42:51;11.90;1.00
1377;DHT22;682;52.502;13.488;2023-10-08T02:45:25;11.90;1.00
1377;DHT22;682;52.502;13.488;2023-10-08T02:47:52;12.00;1.00
1377;DHT22;682;52.502;13.488;2023-10-08T02:50:20;12.00;1.00
1377;DHT22;682;52.502;13.488;2023-10-08T02:52:48;12.00;1.00
1377;DHT22;682;52.502;13.488;2023-10-08T02:55:16;12.00;1.00
1377;DHT22;682;52.502;13.488;2023-10-08T02:57:54;11.90;1.00
1377;DHT22;682;52.502;13.488;2023-10-08T03:00:24;12.00;1.00
1377;DHT22;682;52.502;13.488;2023-10-08T03:02:55;12.00;1.00
1377;DHT22;682;52.502;13.488;2023-10-08T03:05:22;12.00;1.00
1377;DHT22;682;52.502;13.488;2023-10-08T03:07:55;12.00;1.00
1377;DHT22;682;52.502;13.488;2023-10-08T03:10:23;12.00;1.00
1377;DHT22;682;52.502;13.488;2023-10-08T03:12:58;12.00;1.00
1377;DHT22;682;52.502;13.488;2023-10-08T03:15:31;12.00;1.00
1377;DHT22;682;52.502;13.488;2023-10-08T03:18:04;12.00;1.00
1377;DHT22;682;52.502;13.488;2023-10-08T03:20:35;12.10;1.00
1377;DHT22;682;52.502;13.488;2023-10-08T03:23:08;12.10;1.00
1377;DHT22;682;52.502;13.488;2023-10-08T03:25:50;12.10;1.00
1377;DHT22;682;52.502;13.488;2023-10-08T03:28:22;12.10;1.00
1377;DHT22;682;52.502;13.488;2023-10-08T03:30:52;12.20;1.00
1377;DHT22;682;52.502;13.488;2023-10-08T03:33:28;12.20;1.00
1377;DHT22;682;52.502;13.488;2023-10-08T03:36:00;12.20;1.00
1377;DHT22;682;52.502;13.488;2023-10-08T03:38:35;12.10;1.00
1377;DHT22;682;52.502;13.488;2023-10-08T03:41:16;12.10;1.00
1377;DHT22;682;52.502;13.488;2023-10-08T03:43:46;12.10;1.00
1377;DHT22;682;52.502;13.488;2023-10-08T03:46:23;12.10;1.00
1377;DHT22;682;52.502;13.488;2023-10-08T03:48:52;12.10;1.00
1377;DHT22;682;52.502;13.488;2023-10-08T03:51:22;12.10;1.00
1377;DHT22;682;52.502;13.488;2023-10-08T03:53:52;12.10;1.00
1377;DHT22;682;52.502;13.488;2023-10-08T03:56:25;12.10;1.00
1377;DHT22;682;52.502;13.488;2023-10-08T03:58:55;12.00;1.00
1377;DHT22;682;52.502;13.488;2023-10-08T04:01:27;12.00;1.00
1377;DHT22;682;52.502;13.488;2023-10-08T04:03:58;12.00;1.00
1377;DHT22;682;52.502;13.488;2023-10-08T04:06:27;12.10;1.00
1377;DHT22;682;52.502;13.488;2023-10-08T04:09:04;12.00;1.00
1377;DHT22;682;52.502;13.488;2023-10-08T04:11:50;12.00;1.00
1377;DHT22;682;52.502;13.488;2023-10-08T04:14:22;12.00;1.00
1377;DHT22;682;52.502;13.488;2023-10-08T04:16:51;11.90;1.00
1377;DHT22;682;52.502;13.488;2023-10-08T04:19:19;11.90;1.00
1377;DHT22;682;52.502;13.488;2023-10-08T04:21:47;11.80;1.00
1377;DHT22;682;52.502;13.488;2023-10-08T04:24:20;11.80;1.00
1377;DHT22;682;52.502;13.488;2023-10-08T04:26:54;11.80;1.00
1377;DHT22;682;52.502;13.488;2023-10-08T04:29:23;11.80;1.00
1377;DHT22;682;52.502;13.488;2023-10-08T04:31:52;11.80;1.00
1377;DHT22;682;52.502;13.488;2023-10-08T04:34:28;11.70;1.00
1377;DHT22;682;52.502;13.488;2023-10-08T04:36:55;11.70;1.00
1377;DHT22;682;52.502;13.488;2023-10-08T04:39:26;11.70;1.00
1377;DHT22;682;52.502;13.488;2023-10-08T04:41:59;11.70;1.00
1377;DHT22;682;52.502;13.488;2023-10-08T04:44:32;11.70;1.00
1377;DHT22;682;52.502;13.488;2023-10-08T04:47:01;11.70;1.00
1377;DHT22;682;52.502;13.488;2023-10-08T04:49:32;11.60;1.00
1377;DHT22;682;52.502;13.488;2023-10-08T04:52:01;11.50;1.00
1377;DHT22;682;52.502;13.488;2023-10-08T04:54:34;11.50;1.00
1377;DHT22;682;52.502;13.488;2023-10-08T04:57:06;11.60;1.00
1377;DHT22;682;52.502;13.488;2023-10-08T04:59:41;11.50;1.00
1377;DHT22;682;52.502;13.488;2023-10-08T05:02:10;11.40;1.00
1377;DHT22;682;52.502;13.488;2023-10-08T05:04:46;11.40;1.00
1377;DHT22;682;52.502;13.488;2023-10-08T05:07:23;11.40;1.00
1377;DHT22;682;52.502;13.488;2023-10-08T05:10:04;11.30;1.00
1377;DHT22;682;52.502;13.488;2023-10-08T05:12:57;11.30;1.00
1377;DHT22;682;52.502;13.488;2023-10-08T05:15:40;11.30;1.00
1377;DHT22;682;52.502;13.488;2023-10-08T05:18:17;11.30;1.00
1377;DHT22;682;52.502;13.488;2023-10-08T05:20:49;11.30;1.00
1377;DHT22;682;52.502;13.488;2023-10-08T05:23:42;11.30;1.00
1377;DHT22;682;52.502;13.488;2023-10-08T05:26:36;11.30;1.00
1377;DHT22;682;52.502;13.488;2023-10-08T05:29:11;11.40;1.00
1377;DHT22;682;52.502;13.488;2023-10-08T05:32:17;11.50;1.00
1377;DHT22;682;52.502;13.488;2023-10-08T05:35:06;11.60;1.00
1377;DHT22;682;52.502;13.488;2023-10-08T05:37:58;11.60;1.00
1377;DHT22;682;52.502;13.488;2023-10-08T05:40:39;11.50;1.00
1377;DHT22;682;52.502;13.488;2023-10-08T05:43:31;11.50;1.00
1377;DHT22;682;52.502;13.488;2023-10-08T05:46:21;11.50;1.00
1377;DHT22;682;52.502;13.488;2023-10-08T05:49:14;11.50;1.00
1377;DHT22;682;52.502;13.488;2023-10-08T05:52:00;11.60;1.00
1377;DHT22;682;52.502;13.488;2023-10-08T05:54:45;11.50;1.00
1377;DHT22;682;52.502;13.488;2023-10-08T05:57:34;11.40;1.00
1377;DHT22;682;52.502;13.488;2023-10-08T06:00:05;11.30;1.00
1377;DHT22;682;52.502;13.488;2023-10-08T06:02:49;11.30;1.00
1377;DHT22;682;52.502;13.488;2023-10-08T06:05:33;11.30;1.00
1377;DHT22;682;52.502;13.488;2023-10-08T06:08:10;11.40;1.00
1377;DHT22;682;52.502;13.488;2023-10-08T06:10:40;11.30;1.00
1377;DHT22;682;52.502;13.488;2023-10-08T06:13:22;11.40;1.00
1377;DHT22;682;52.502;13.488;2023-10-08T06:15:56;11.40;1.00
1377;DHT22;682;52.502;13.488;2023-10-08T06:18:32;11.30;1.00
1377;DHT22;682;52.502;13.488;2023-10-08T06:21:01;11.40;1.00
1377;DHT22;682;52.502;13.488;2023-10-08T06:23:37;11.40;1.00
1377;DHT22;682;52.502;13.488;2023-10-08T06:26:04;11.40;1.00
1377;DHT22;682;52.502;13.488;2023-10-08T06:28:44;11.60;1.00
1377;DHT22;682;52.502;13.488;2023-10-08T06:31:11;11.70;1.00
1377;DHT22;682;52.502;13.488;2023-10-08T06:33:42;11.90;1.00
1377;DHT22;682;52.502;13.488;2023-10-08T06:36:10;12.00;1.00
1377;DHT22;682;52.502;13.488;2023-10-08T06:38:43;12.10;1.00
1377;DHT22;682;52.502;13.488;2023-10-08T06:41:14;12.10;1.00
1377;DHT22;682;52.502;13.488;2023-10-08T06:43:44;12.20;1.00
1377;DHT22;682;52.502;13.488;2023-10-08T06:46:13;12.20;1.00
1377;DHT22;682;52.502;13.488;2023-10-08T06:48:41;12.30;1.00
1377;DHT22;682;52.502;13.488;2023-10-08T06:51:09;12.30;1.00
1377;DHT22;682;52.502;13.488;2023-10-08T06:53:39;12.30;1.00
1377;DHT22;682;52.502;13.488;2023-10-08T06:56:07;12.30;1.00
1377;DHT22;682;52.502;13.488;2023-10-08T06:58:37;12.30;1.00
1377;DHT22;682;52.502;13.488;2023-10-08T07:01:05;12.40;1.00
1377;DHT22;682;52.502;13.488;2023-10-08T07:03:35;12.50;1.00
1377;DHT22;682;52.502;13.488;2023-10-08T07:06:04;12.50;1.00
1377;DHT22;682;52.502;13.488;2023-10-08T07:08:43;12.40;1.00
1377;DHT22;682;52.502;13.488;2023-10-08T07:11:13;12.40;1.00
1377;DHT22;682;52.502;13.488;2023-10-08T07:13:43;12.40;1.00
1377;DHT22;682;52.502;13.488;2023-10-08T07:16:10;12.40;1.00
1377;DHT22;682;52.502;13.488;2023-10-08T07:18:38;12.30;1.00
1377;DHT22;682;52.502;13.488;2023-10-08T07:21:05;12.40;1.00
1377;DHT22;682;52.502;13.488;2023-10-08T07:23:38;12.40;1.00
1377;DHT22;682;52.502;13.488;2023-10-08T07:26:23;12.40;1.00
1377;DHT22;682;52.502;13.488;2023-10-08T07:28:51;12.50;1.00
1377;DHT22;682;52.502;13.488;2023-10-08T07:31:19;12.50;1.00
1377;DHT22;682;52.502;13.488;2023-10-08T07:33:49;12.50;1.00
1377;DHT22;682;52.502;13.488;2023-10-08T07:36:22;12.50;1.00
1377;DHT22;682;52.502;13.488;2023-10-08T07:38:51;12.60;1.00
1377;DHT22;682;52.502;13.488;2023-10-08T07:41:18;12.70;1.00
1377;DHT22;682;52.502;13.488;2023-10-08T07:43:48;12.70;1.00
1377;DHT22;682;52.502;13.488;2023-10-08T07:46:21;12.80;1.00
1377;DHT22;682;52.502;13.488;2023-10-08T07:48:48;12.90;1.00
1377;DHT22;682;52.502;13.488;2023-10-08T07:51:16;13.00;1.00
1377;DHT22;682;52.502;13.488;2023-10-08T07:53:47;13.00;1.00
1377;DHT22;682;52.502;13.488;2023-10-08T07:56:14;13.00;1.00
1377;DHT22;682;52.502;13.488;2023-10-08T07:58:43;13.10;1.00
1377;DHT22;682;52.502;13.488;2023-10-08T08:01:11;13.10;1.00
1377;DHT22;682;52.502;13.488;2023-10-08T08:03:40;13.20;1.00
1377;DHT22;682;52.502;13.488;2023-10-08T08:06:08;13.20;1.00
1377;DHT22;682;52.502;13.488;2023-10-08T08:08:36;13.30;1.00
1377;DHT22;682;52.502;13.488;2023-10-08T08:11:05;13.30;1.00
1377;DHT22;682;52.502;13.488;2023-10-08T08:13:38;13.40;1.00
1377;DHT22;682;52.502;13.488;2023-10-08T08:16:07;13.50;1.00
1377;DHT22;682;52.502;13.488;2023-10-08T08:18:46;13.60;1.00
1377;DHT22;682;52.502;13.488;2023-10-08T08:21:14;13.60;1.00
1377;DHT22;682;52.502;13.488;2023-10-08T08:23:43;13.70;1.00
1377;DHT22;682;52.502;13.488;2023-10-08T08:26:15;13.80;1.00
1377;DHT22;682;52.502;13.488;2023-10-08T08:28:53;14.00;1.00
1377;DHT22;682;52.502;13.488;2023-10-08T08:31:23;14.20;1.00
1377;DHT22;682;52.502;13.488;2023-10-08T08:33:53;15.00;1.00
1377;DHT22;682;52.502;13.488;2023-10-08T08:36:23;15.30;1.00
1377;DHT22;682;52.502;13.488;2023-10-08T08:38:52;15.20;1.00
1377;DHT22;682;52.502;13.488;2023-10-08T08:41:20;15.00;1.00
1377;DHT22;682;52.502;13.488;2023-10-08T08:43:49;14.80;1.00
1377;DHT22;682;52.502;13.488;2023-10-08T08:46:26;14.90;1.00
1377;DHT22;682;52.502;13.488;2023-10-08T08:48:56;16.10;1.00
1377;DHT22;682;52.502;13.488;2023-10-08T08:51:24;17.70;1.00
1377;DHT22;682;52.502;13.488;2023-10-08T08:53:51;19.10;1.00
1377;DHT22;682;52.502;13.488;2023-10-08T08:56:19;20.40;1.00
1377;DHT22;682;52.502;13.488;2023-10-08T08:58:47;21.60;1.00
1377;DHT22;682;52.502;13.488;2023-10-08T09:01:15;22.50;1.00
1377;DHT22;682;52.502;13.488;2023-10-08T09:03:43;23.80;1.00
1377;DHT22;682;52.502;13.488;2023-10-08T09:06:15;24.90;1.00
1377;DHT22;682;52.502;13.488;2023-10-08T09:08:41;25.70;1.00
1377;DHT22;682;52.502;13.488;2023-10-08T09:11:14;26.10;1.00
1377;DHT22;682;52.502;13.488;2023-10-08T09:13:41;26.50;1.00
1377;DHT22;682;52.502;13.488;2023-10-08T09:16:12;27.20;1.00
1377;DHT22;682;52.502;13.488;2023-10-08T09:18:41;27.70;1.00
1377;DHT22;682;52.502;13.488;2023-10-08T09:21:10;27.90;1.00
1377;DHT22;682;52.502;13.488;2023-10-08T09:23:43;26.10;1.00
1377;DHT22;682;52.502;13.488;2023-10-08T09:26:13;24.20;1.00
1377;DHT22;682;52.502;13.488;2023-10-08T09:28:44;22.90;1.00
1377;DHT22;682;52.502;13.488;2023-10-08T09:31:14;21.80;1.00
1377;DHT22;682;52.502;13.488;2023-10-08T09:33:43;20.60;1.00
1377;DHT22;682;52.502;13.488;2023-10-08T09:36:10;19.80;1.00
1377;DHT22;682;52.502;13.488;2023-10-08T09:38:46;19.20;1.00
1377;DHT22;682;52.502;13.488;2023-10-08T09:41:16;18.60;1.00
1377;DHT22;682;52.502;13.488;2023-10-08T09:43:45;18.10;1.00
1377;DHT22;682;52.502;13.488;2023-10-08T09:46:18;17.70;1.00
1377;DHT22;682;52.502;13.488;2023-10-08T09:48:49;17.40;1.00
1377;DHT22;682;52.502;13.488;2023-10-08T09:51:18;17.20;1.00
1377;DHT22;682;52.502;13.488;2023-10-08T09:54:02;17.20;1.00
1377;DHT22;682;52.502;13.488;2023-10-08T09:56:31;17.40;1.00
1377;DHT22;682;52.502;13.488;2023-10-08T09:59:00;17.80;1.00
1377;DHT22;682;52.502;13.488;2023-10-08T10:01:28;18.20;1.00
1377;DHT22;682;52.502;13.488;2023-10-08T10:03:57;18.60;1.00
1377;DHT22;682;52.502;13.488;2023-10-08T10:06:26;18.80;1.00
1377;DHT22;682;52.502;13.488;2023-10-08T10:08:56;19.60;1.00
1377;DHT22;682;52.502;13.488;2023-10-08T10:11:26;20.60;1.00
1377;DHT22;682;52.502;13.488;2023-10-08T10:13:58;21.00;1.00
1377;DHT22;682;52.502;13.488;2023-10-08T10:16:26;20.60;1.00
1377;DHT22;682;52.502;13.488;2023-10-08T10:18:55;20.40;1.00
1377;DHT22;682;52.502;13.488;2023-10-08T10:21:30;21.00;1.00
1377;DHT22;682;52.502;13.488;2023-10-08T10:24:00;22.30;1.00
1377;DHT22;682;52.502;13.488;2023-10-08T10:26:32;23.30;1.00
1377;DHT22;682;52.502;13.488;2023-10-08T10:29:22;24.20;1.00
1377;DHT22;682;52.502;13.488;2023-10-08T10:31:52;23.60;1.00
1377;DHT22;682;52.502;13.488;2023-10-08T10:34:22;22.60;1.00
1377;DHT22;682;52.502;13.488;2023-10-08T10:36:51;21.30;1.00
1377;DHT22;682;52.502;13.488;2023-10-08T10:39:26;19.50;1.00
1377;DHT22;682;52.502;13.488;2023-10-08T10:41:55;18.60;1.00
1377;DHT22;682;52.502;13.488;2023-10-08T10:44:23;18.30;1.00
1377;DHT22;682;52.502;13.488;2023-10-08T10:46:51;18.60;1.00
1377;DHT22;682;52.502;13.488;2023-10-08T10:49:38;19.30;1.00
1377;DHT22;682;52.502;13.488;2023-10-08T10:52:14;20.30;1.00
1377;DHT22;682;52.502;13.488;2023-10-08T10:54:53;21.00;1.00
1377;DHT22;682;52.502;13.488;2023-10-08T10:57:26;22.50;1.00
1377;DHT22;682;52.502;13.488;2023-10-08T11:00:04;24.10;1.00
1377;DHT22;682;52.502;13.488;2023-10-08T11:02:56;24.30;1.00
1377;DHT22;682;52.502;13.488;2023-10-08T11:05:25;24.10;1.00
1377;DHT22;682;52.502;13.488;2023-10-08T11:07:55;24.80;1.00
1377;DHT22;682;52.502;13.488;2023-10-08T11:10:27;25.50;1.00
1377;DHT22;682;52.502;13.488;2023-10-08T11:12:56;25.60;1.00
1377;DHT22;682;52.502;13.488;2023-10-08T11:15:27;25.80;1.00
1377;DHT22;682;52.502;13.488;2023-10-08T11:18:07;27.20;1.00
1377;DHT22;682;52.502;13.488;2023-10-08T11:20:35;27.90;1.00
1377;DHT22;682;52.502;13.488;2023-10-08T11:23:05;27.60;1.00
1377;DHT22;682;52.502;13.488;2023-10-08T11:25:54;26.90;1.00
1377;DHT22;682;52.502;13.488;2023-10-08T11:28:26;27.00;1.00
1377;DHT22;682;52.502;13.488;2023-10-08T11:30:54;28.50;1.00
1377;DHT22;682;52.502;13.488;2023-10-08T11:33:25;30.30;1.00
1377;DHT22;682;52.502;13.488;2023-10-08T11:35:57;31.70;1.00
1377;DHT22;682;52.502;13.488;2023-10-08T11:38:25;31.10;1.00
1377;DHT22;682;52.502;13.488;2023-10-08T11:41:10;29.80;1.00
1377;DHT22;682;52.502;13.488;2023-10-08T11:43:39;28.30;1.00
1377;DHT22;682;52.502;13.488;2023-10-08T11:46:06;27.00;1.00
1377;DHT22;682;52.502;13.488;2023-10-08T11:48:36;26.40;1.00
1377;DHT22;682;52.502;13.488;2023-10-08T11:51:04;27.00;1.00
1377;DHT22;682;52.502;13.488;2023-10-08T11:53:31;28.50;1.00
1377;DHT22;682;52.502;13.488;2023-10-08T11:56:04;29.60;1.00
1377;DHT22;682;52.502;13.488;2023-10-08T11:58:39;29.90;1.00
1377;DHT22;682;52.502;13.488;2023-10-08T12:01:10;30.70;1.00
1377;DHT22;682;52.502;13.488;2023-10-08T12:03:41;31.20;1.00
1377;DHT22;682;52.502;13.488;2023-10-08T12:06:09;31.50;1.00
1377;DHT22;682;52.502;13.488;2023-10-08T12:08:41;31.10;1.00
1377;DHT22;682;52.502;13.488;2023-10-08T12:11:13;29.90;1.00
1377;DHT22;682;52.502;13.488;2023-10-08T12:13:40;28.80;1.00
1377;DHT22;682;52.502;13.488;2023-10-08T12:16:13;27.50;1.00
1377;DHT22;682;52.502;13.488;2023-10-08T12:18:45;25.90;1.00
1377;DHT22;682;52.502;13.488;2023-10-08T12:21:15;24.90;1.00
1377;DHT22;682;52.502;13.488;2023-10-08T12:23:43;24.50;1.00
1377;DHT22;682;52.502;13.488;2023-10-08T12:26:13;24.00;1.00
1377;DHT22;682;52.502;13.488;2023-10-08T12:28:44;23.40;1.00
1377;DHT22;682;52.502;13.488;2023-10-08T12:31:12;23.40;1.00
1377;DHT22;682;52.502;13.488;2023-10-08T12:33:41;23.30;1.00
1377;DHT22;682;52.502;13.488;2023-10-08T12:36:09;23.10;1.00
1377;DHT22;682;52.502;13.488;2023-10-08T12:38:40;22.50;1.00
1377;DHT22;682;52.502;13.488;2023-10-08T12:41:10;22.20;1.00
1377;DHT22;682;52.502;13.488;2023-10-08T12:43:44;22.10;1.00
1377;DHT22;682;52.502;13.488;2023-10-08T12:46:12;21.70;1.00
1377;DHT22;682;52.502;13.488;2023-10-08T12:48:51;21.30;1.00
1377;DHT22;682;52.502;13.488;2023-10-08T12:51:20;20.90;1.00
1377;DHT22;682;52.502;13.488;2023-10-08T12:53:49;20.60;1.00
1377;DHT22;682;52.502;13.488;2023-10-08T12:56:24;20.50;1.00
1377;DHT22;682;52.502;13.488;2023-10-08T12:58:58;20.60;1.00
1377;DHT22;682;52.502;13.488;2023-10-08T13:01:29;20.60;1.00
1377;DHT22;682;52.502;13.488;2023-10-08T13:03:57;21.00;1.00
1377;DHT22;682;52.502;13.488;2023-10-08T13:06:27;21.10;1.00
1377;DHT22;682;52.502;13.488;2023-10-08T13:08:55;20.80;1.00
1377;DHT22;682;52.502;13.488;2023-10-08T13:11:24;20.30;1.00
1377;DHT22;682;52.502;13.488;2023-10-08T13:13:52;20.00;1.00
1377;DHT22;682;52.502;13.488;2023-10-08T13:16:24;19.90;1.00
1377;DHT22;682;52.502;13.488;2023-10-08T13:18:51;19.80;1.00
1377;DHT22;682;52.502;13.488;2023-10-08T13:21:22;19.70;1.00
1377;DHT22;682;52.502;13.488;2023-10-08T13:23:50;19.60;1.00
1377;DHT22;682;52.502;13.488;2023-10-08T13:26:17;19.50;1.00
1377;DHT22;682;52.502;13.488;2023-10-08T13:28:48;19.00;1.00
1377;DHT22;682;52.502;13.488;2023-10-08T13:31:15;18.70;1.00
1377;DHT22;682;52.502;13.488;2023-10-08T13:33:46;18.50;1.00
1377;DHT22;682;52.502;13.488;2023-10-08T13:36:17;18.20;1.00
1377;DHT22;682;52.502;13.488;2023-10-08T13:38:44;17.90;1.00
1377;DHT22;682;52.502;13.488;2023-10-08T13:41:12;17.70;1.00
1377;DHT22;682;52.502;13.488;2023-10-08T13:43:42;17.60;1.00
1377;DHT22;682;52.502;13.488;2023-10-08T13:46:11;17.60;1.00
1377;DHT22;682;52.502;13.488;2023-10-08T13:48:40;17.60;1.00
1377;DHT22;682;52.502;13.488;2023-10-08T13:51:09;17.50;1.00
1377;DHT22;682;52.502;13.488;2023-10-08T13:53:39;17.60;1.00
1377;DHT22;682;52.502;13.488;2023-10-08T13:56:06;17.60;1.00
1377;DHT22;682;52.502;13.488;2023-10-08T13:58:37;17.60;1.00
1377;DHT22;682;52.502;13.488;2023-10-08T14:01:11;17.60;1.00
1377;DHT22;682;52.502;13.488;2023-10-08T14:03:46;17.60;1.00
1377;DHT22;682;52.502;13.488;2023-10-08T14:06:14;17.60;1.00
1377;DHT22;682;52.502;13.488;2023-10-08T14:08:42;17.60;1.00
1377;DHT22;682;52.502;13.488;2023-10-08T14:11:17;17.60;1.00
1377;DHT22;682;52.502;13.488;2023-10-08T14:13:44;17.50;1.00
1377;DHT22;682;52.502;13.488;2023-10-08T14:16:13;17.50;1.00
1377;DHT22;682;52.502;13.488;2023-10-08T14:18:43;17.50;1.00
1377;DHT22;682;52.502;13.488;2023-10-08T14:21:17;17.40;1.00
1377;DHT22;682;52.502;13.488;2023-10-08T14:23:44;17.40;1.00
1377;DHT22;682;52.502;13.488;2023-10-08T14:26:13;17.30;1.00
1377;DHT22;682;52.502;13.488;2023-10-08T14:28:41;17.20;1.00
1377;DHT22;682;52.502;13.488;2023-10-08T14:31:10;17.20;1.00
1377;DHT22;682;52.502;13.488;2023-10-08T14:33:41;17.10;1.00
1377;DHT22;682;52.502;13.488;2023-10-08T14:36:22;17.00;1.00
1377;DHT22;682;52.502;13.488;2023-10-08T14:39:07;16.90;1.00
1377;DHT22;682;52.502;13.488;2023-10-08T14:41:51;16.80;1.00
1377;DHT22;682;52.502;13.488;2023-10-08T14:44:35;16.70;1.00
1377;DHT22;682;52.502;13.488;2023-10-08T14:47:03;16.60;1.00
1377;DHT22;682;52.502;13.488;2023-10-08T14:49:30;16.50;1.00
1377;DHT22;682;52.502;13.488;2023-10-08T14:51:59;16.40;1.00
1377;DHT22;682;52.502;13.488;2023-10-08T14:54:29;16.30;1.00
1377;DHT22;682;52.502;13.488;2023-10-08T14:56:57;16.30;1.00
1377;DHT22;682;52.502;13.488;2023-10-08T14:59:24;16.30;1.00
1377;DHT22;682;52.502;13.488;2023-10-08T15:01:53;16.30;1.00
1377;DHT22;682;52.502;13.488;2023-10-08T15:04:21;16.20;1.00
1377;DHT22;682;52.502;13.488;2023-10-08T15:06:48;16.20;1.00
1377;DHT22;682;52.502;13.488;2023-10-08T15:09:16;16.20;1.00
1377;DHT22;682;52.502;13.488;2023-10-08T15:11:46;16.10;1.00
1377;DHT22;682;52.502;13.488;2023-10-08T15:14:13;16.10;1.00
1377;DHT22;682;52.502;13.488;2023-10-08T15:16:41;16.10;1.00
1377;DHT22;682;52.502;13.488;2023-10-08T15:19:12;16.10;1.00
1377;DHT22;682;52.502;13.488;2023-10-08T15:21:41;16.10;1.00
1377;DHT22;682;52.502;13.488;2023-10-08T15:24:09;16.10;1.00
1377;DHT22;682;52.502;13.488;2023-10-08T15:26:38;16.10;1.00
1377;DHT22;682;52.502;13.488;2023-10-08T15:29:06;16.10;1.00
1377;DHT22;682;52.502;13.488;2023-10-08T15:31:33;16.20;1.00
1377;DHT22;682;52.502;13.488;2023-10-08T15:34:00;16.20;1.00
1377;DHT22;682;52.502;13.488;2023-10-08T15:36:30;16.20;1.00
1377;DHT22;682;52.502;13.488;2023-10-08T15:38:57;16.00;1.00
1377;DHT22;682;52.502;13.488;2023-10-08T15:41:24;16.00;1.00
1377;DHT22;682;52.502;13.488;2023-10-08T15:43:52;16.00;1.00
1377;DHT22;682;52.502;13.488;2023-10-08T15:46:24;15.90;1.00
1377;DHT22;682;52.502;13.488;2023-10-08T15:48:51;15.80;1.00
1377;DHT22;682;52.502;13.488;2023-10-08T15:51:18;15.80;1.00
1377;DHT22;682;52.502;13.488;2023-10-08T15:53:45;15.80;1.00
1377;DHT22;682;52.502;13.488;2023-10-08T15:56:12;15.80;1.00
1377;DHT22;682;52.502;13.488;2023-10-08T15:58:39;15.70;1.00
1377;DHT22;682;52.502;13.488;2023-10-08T16:01:08;15.70;1.00
1377;DHT22;682;52.502;13.488;2023-10-08T16:03:37;15.60;1.00
1377;DHT22;682;52.502;13.488;2023-10-08T16:06:04;15.50;1.00
1377;DHT22;682;52.502;13.488;2023-10-08T16:08:31;15.50;1.00
1377;DHT22;682;52.502;13.488;2023-10-08T16:10:58;15.40;1.00
1377;DHT22;682;52.502;13.488;2023-10-08T16:13:25;15.40;1.00
1377;DHT22;682;52.502;13.488;2023-10-08T16:15:52;15.30;1.00
1377;DHT22;682;52.502;13.488;2023-10-08T16:18:21;15.20;1.00
1377;DHT22;682;52.502;13.488;2023-10-08T16:20:48;15.20;1.00
1377;DHT22;682;52.502;13.488;2023-10-08T16:23:15;15.10;1.00
1377;DHT22;682;52.502;13.488;2023-10-08T16:25:44;15.10;1.00
1377;DHT22;682;52.502;13.488;2023-10-08T16:28:14;15.00;1.00
1377;DHT22;682;52.502;13.488;2023-10-08T16:30:43;14.90;1.00
1377;DHT22;682;52.502;13.488;2023-10-08T16:33:16;14.90;1.00
1377;DHT22;682;52.502;13.488;2023-10-08T16:35:45;14.80;1.00
1377;DHT22;682;52.502;13.488;2023-10-08T16:38:13;14.70;1.00
1377;DHT22;682;52.502;13.488;2023-10-08T16:40:40;14.70;1.00
1377;DHT22;682;52.502;13.488;2023-10-08T16:43:07;14.70;1.00
1377;DHT22;682;52.502;13.488;2023-10-08T16:45:37;14.60;1.00